sensor_id;sensor_type;location;lat;lon;timestamp;P1;durP1;ratioP1;P2;durP2;ratioP2
49153;SDS011;49455;52.252;9.124;2023-04-09T00:04:43;57.07;;;31.03;;
49153;SDS011;49455;52.252;9.124;2023-04-09T00:09:43;58.73;;;31.37;;
49153;SDS011;49455;52.252;9.124;2023-04-09T00:14:44;54.97;;;28.52;;
49153;SDS011;49455;52.252;9.124;2023-04-09T00:19:44;58.97;;;29.45;;
49153;SDS011;49455;52.252;9.124;2023-04-09T00:24:45;62.50;;;29.03;;
49153;SDS011;49455;52.252;9.124;2023-04-09T00:29:45;55.60;;;29.33;;
49153;SDS011;49455;52.252;9.124;2023-04-09T00:34:45;58.87;;;29.33;;
49153;SDS011;49455;52.252;9.124;2023-04-09T00:39:46;58.57;;;29.77;;
49153;SDS011;49455;52.252;9.124;2023-04-09T00:44:46;58.53;;;29.87;;
49153;SDS011;49455;52.252;9.124;2023-04-09T00:49:50;63.73;;;31.13;;
49153;SDS011;49455;52.252;9.124;2023-04-09T00:54:50;65.40;;;31.90;;
49153;SDS011;49455;52.252;9.124;2023-04-09T00:59:51;62.17;;;31.15;;
49153;SDS011;49455;52.252;9.124;2023-04-09T01:04:53;61.83;;;31.50;;
49153;SDS011;49455;52.252;9.124;2023-04-09T01:09:57;61.10;;;32.95;;
49153;SDS011;49455;52.252;9.124;2023-04-09T01:15:08;71.63;;;36.45;;
49153;SDS011;49455;52.252;9.124;2023-04-09T01:20:13;79.72;;;38.20;;
49153;SDS011;49455;52.252;9.124;2023-04-09T01:30:52;78.13;;;38.08;;
49153;SDS011;49455;52.252;9.124;2023-04-09T01:35:58;78.75;;;37.45;;
49153;SDS011;49455;52.252;9.124;2023-04-09T01:41:00;88.80;;;41.72;;
49153;SDS011;49455;52.252;9.124;2023-04-09T01:46:02;92.75;;;43.17;;
49153;SDS011;49455;52.252;9.124;2023-04-09T01:51:03;106.45;;;51.65;;
49153;SDS011;49455;52.252;9.124;2023-04-09T01:56:04;116.67;;;51.20;;
49153;SDS011;49455;52.252;9.124;2023-04-09T02:06:46;109.38;;;50.10;;
49153;SDS011;49455;52.252;9.124;2023-04-09T02:11:52;108.88;;;50.75;;
49153;SDS011;49455;52.252;9.124;2023-04-09T02:16:58;103.60;;;49.72;;
49153;SDS011;49455;52.252;9.124;2023-04-09T02:22:01;109.63;;;52.60;;
49153;SDS011;49455;52.252;9.124;2023-04-09T02:27:04;97.63;;;46.35;;
49153;SDS011;49455;52.252;9.124;2023-04-09T02:32:07;94.72;;;46.90;;
49153;SDS011;49455;52.252;9.124;2023-04-09T02:37:08;93.07;;;46.07;;
49153;SDS011;49455;52.252;9.124;2023-04-09T02:42:09;91.33;;;45.70;;
49153;SDS011;49455;52.252;9.124;2023-04-09T02:47:09;88.82;;;44.58;;
49153;SDS011;49455;52.252;9.124;2023-04-09T02:52:11;87.90;;;45.20;;
49153;SDS011;49455;52.252;9.124;2023-04-09T02:57:11;93.75;;;44.22;;
49153;SDS011;49455;52.252;9.124;2023-04-09T03:02:12;89.13;;;42.70;;
49153;SDS011;49455;52.252;9.124;2023-04-09T03:07:12;86.53;;;43.28;;
49153;SDS011;49455;52.252;9.124;2023-04-09T03:12:13;85.60;;;42.20;;
49153;SDS011;49455;52.252;9.124;2023-04-09T03:17:13;85.37;;;42.27;;
49153;SDS011;49455;52.252;9.124;2023-04-09T03:22:13;91.67;;;44.97;;
49153;SDS011;49455;52.252;9.124;2023-04-09T03:27:14;86.55;;;44.13;;
49153;SDS011;49455;52.252;9.124;2023-04-09T03:32:15;92.40;;;46.20;;
49153;SDS011;49455;52.252;9.124;2023-04-09T03:37:16;102.10;;;50.33;;
49153;SDS011;49455;52.252;9.124;2023-04-09T03:42:17;96.57;;;46.45;;
49153;SDS011;49455;52.252;9.124;2023-04-09T03:47:21;100.97;;;47.20;;
49153;SDS011;49455;52.252;9.124;2023-04-09T03:57:34;95.40;;;45.40;;
49153;SDS011;49455;52.252;9.124;2023-04-09T04:02:34;124.83;;;48.33;;
49153;SDS011;49455;52.252;9.124;2023-04-09T04:07:38;99.82;;;44.03;;
49153;SDS011;49455;52.252;9.124;2023-04-09T04:12:44;117.22;;;46.95;;
49153;SDS011;49455;52.252;9.124;2023-04-09T04:18:07;143.95;;;44.97;;
49153;SDS011;49455;52.252;9.124;2023-04-09T04:23:13;161.65;;;46.10;;
49153;SDS011;49455;52.252;9.124;2023-04-09T04:28:23;206.40;;;49.10;;
49153;SDS011;49455;52.252;9.124;2023-04-09T04:33:23;280.40;;;53.63;;
49153;SDS011;49455;52.252;9.124;2023-04-09T04:38:27;122.22;;;44.97;;
49153;SDS011;49455;52.252;9.124;2023-04-09T04:43:28;102.37;;;45.73;;
49153;SDS011;49455;52.252;9.124;2023-04-09T04:48:32;87.60;;;39.75;;
49153;SDS011;49455;52.252;9.124;2023-04-09T04:53:32;88.70;;;41.30;;
49153;SDS011;49455;52.252;9.124;2023-04-09T04:58:41;85.55;;;40.28;;
49153;SDS011;49455;52.252;9.124;2023-04-09T05:03:41;82.95;;;39.90;;
49153;SDS011;49455;52.252;9.124;2023-04-09T05:09:02;86.03;;;41.40;;
49153;SDS011;49455;52.252;9.124;2023-04-09T05:14:11;96.80;;;43.10;;
49153;SDS011;49455;52.252;9.124;2023-04-09T05:19:12;91.83;;;43.33;;
49153;SDS011;49455;52.252;9.124;2023-04-09T05:24:12;88.03;;;41.57;;
49153;SDS011;49455;52.252;9.124;2023-04-09T05:29:13;89.07;;;42.20;;
49153;SDS011;49455;52.252;9.124;2023-04-09T05:34:13;110.67;;;48.63;;
49153;SDS011;49455;52.252;9.124;2023-04-09T05:39:21;85.35;;;40.58;;
49153;SDS011;49455;52.252;9.124;2023-04-09T05:44:22;105.87;;;46.83;;
49153;SDS011;49455;52.252;9.124;2023-04-09T05:49:25;97.97;;;46.17;;
49153;SDS011;49455;52.252;9.124;2023-04-09T05:54:29;106.47;;;47.05;;
49153;SDS011;49455;52.252;9.124;2023-04-09T05:59:31;219.70;;;54.45;;
49153;SDS011;49455;52.252;9.124;2023-04-09T06:04:31;113.50;;;47.77;;
49153;SDS011;49455;52.252;9.124;2023-04-09T06:09:33;100.15;;;44.42;;
49153;SDS011;49455;52.252;9.124;2023-04-09T06:14:35;114.93;;;45.65;;
49153;SDS011;49455;52.252;9.124;2023-04-09T06:19:39;109.72;;;44.10;;
49153;SDS011;49455;52.252;9.124;2023-04-09T06:24:39;183.37;;;46.07;;
49153;SDS011;49455;52.252;9.124;2023-04-09T06:29:39;91.10;;;40.53;;
49153;SDS011;49455;52.252;9.124;2023-04-09T06:34:40;239.23;;;52.17;;
49153;SDS011;49455;52.252;9.124;2023-04-09T06:39:40;116.67;;;44.47;;
49153;SDS011;49455;52.252;9.124;2023-04-09T06:44:41;118.53;;;42.83;;
49153;SDS011;49455;52.252;9.124;2023-04-09T06:49:41;224.40;;;45.23;;
49153;SDS011;49455;52.252;9.124;2023-04-09T06:54:42;104.73;;;40.20;;
49153;SDS011;49455;52.252;9.124;2023-04-09T06:59:42;93.90;;;39.63;;
49153;SDS011;49455;52.252;9.124;2023-04-09T07:04:43;243.43;;;39.95;;
49153;SDS011;49455;52.252;9.124;2023-04-09T07:09:44;99.67;;;37.07;;
49153;SDS011;49455;52.252;9.124;2023-04-09T07:14:44;112.23;;;39.00;;
49153;SDS011;49455;52.252;9.124;2023-04-09T07:19:45;166.23;;;38.57;;
49153;SDS011;49455;52.252;9.124;2023-04-09T07:24:45;191.70;;;37.73;;
49153;SDS011;49455;52.252;9.124;2023-04-09T07:29:48;108.50;;;35.45;;
49153;SDS011;49455;52.252;9.124;2023-04-09T07:34:52;84.77;;;32.77;;
49153;SDS011;49455;52.252;9.124;2023-04-09T07:39:53;88.13;;;36.53;;
49153;SDS011;49455;52.252;9.124;2023-04-09T07:44:54;60.53;;;35.83;;
49153;SDS011;49455;52.252;9.124;2023-04-09T07:49:54;79.93;;;32.67;;
49153;SDS011;49455;52.252;9.124;2023-04-09T07:54:55;74.33;;;35.37;;
49153;SDS011;49455;52.252;9.124;2023-04-09T07:59:55;62.05;;;35.67;;
49153;SDS011;49455;52.252;9.124;2023-04-09T08:04:55;61.08;;;34.50;;
49153;SDS011;49455;52.252;9.124;2023-04-09T08:09:56;54.50;;;28.70;;
49153;SDS011;49455;52.252;9.124;2023-04-09T08:14:56;46.40;;;27.37;;
49153;SDS011;49455;52.252;9.124;2023-04-09T08:19:57;47.40;;;27.02;;
49153;SDS011;49455;52.252;9.124;2023-04-09T08:24:57;45.77;;;24.90;;
49153;SDS011;49455;52.252;9.124;2023-04-09T08:29:58;41.97;;;24.88;;
49153;SDS011;49455;52.252;9.124;2023-04-09T08:34:58;45.83;;;24.83;;
49153;SDS011;49455;52.252;9.124;2023-04-09T08:39:59;57.15;;;31.45;;
49153;SDS011;49455;52.252;9.124;2023-04-09T08:45:02;49.45;;;29.08;;
49153;SDS011;49455;52.252;9.124;2023-04-09T08:50:03;53.28;;;32.20;;
49153;SDS011;49455;52.252;9.124;2023-04-09T08:55:04;52.40;;;31.88;;
49153;SDS011;49455;52.252;9.124;2023-04-09T09:00:05;56.67;;;33.03;;
49153;SDS011;49455;52.252;9.124;2023-04-09T09:05:06;49.85;;;30.85;;
49153;SDS011;49455;52.252;9.124;2023-04-09T09:10:07;49.77;;;28.33;;
49153;SDS011;49455;52.252;9.124;2023-04-09T09:15:24;63.90;;;37.17;;
49153;SDS011;49455;52.252;9.124;2023-04-09T09:20:26;62.78;;;34.65;;
49153;SDS011;49455;52.252;9.124;2023-04-09T09:25:27;52.70;;;32.70;;
49153;SDS011;49455;52.252;9.124;2023-04-09T09:30:27;50.38;;;30.95;;
49153;SDS011;49455;52.252;9.124;2023-04-09T09:35:28;52.90;;;31.63;;
49153;SDS011;49455;52.252;9.124;2023-04-09T09:40:29;45.47;;;28.50;;
49153;SDS011;49455;52.252;9.124;2023-04-09T09:45:29;45.35;;;26.63;;
49153;SDS011;49455;52.252;9.124;2023-04-09T09:50:31;44.25;;;28.08;;
49153;SDS011;49455;52.252;9.124;2023-04-09T09:55:37;43.75;;;27.40;;
49153;SDS011;49455;52.252;9.124;2023-04-09T10:00:40;34.10;;;22.27;;
49153;SDS011;49455;52.252;9.124;2023-04-09T10:05:41;30.97;;;19.47;;
49153;SDS011;49455;52.252;9.124;2023-04-09T10:10:42;27.92;;;17.75;;
49153;SDS011;49455;52.252;9.124;2023-04-09T10:15:44;27.35;;;18.20;;
49153;SDS011;49455;52.252;9.124;2023-04-09T10:20:49;27.95;;;18.48;;
49153;SDS011;49455;52.252;9.124;2023-04-09T10:25:55;31.17;;;20.17;;
49153;SDS011;49455;52.252;9.124;2023-04-09T10:30:56;29.92;;;18.85;;
49153;SDS011;49455;52.252;9.124;2023-04-09T10:36:04;30.60;;;17.48;;
49153;SDS011;49455;52.252;9.124;2023-04-09T10:41:13;24.90;;;17.13;;
49153;SDS011;49455;52.252;9.124;2023-04-09T10:51:49;23.92;;;15.68;;
49153;SDS011;49455;52.252;9.124;2023-04-09T10:57:11;27.75;;;18.35;;
49153;SDS011;49455;52.252;9.124;2023-04-09T11:07:32;27.30;;;17.27;;
49153;SDS011;49455;52.252;9.124;2023-04-09T11:12:38;26.10;;;17.70;;
49153;SDS011;49455;52.252;9.124;2023-04-09T11:17:41;25.45;;;17.38;;
49153;SDS011;49455;52.252;9.124;2023-04-09T11:22:42;24.07;;;16.77;;
49153;SDS011;49455;52.252;9.124;2023-04-09T11:27:43;23.83;;;16.65;;
49153;SDS011;49455;52.252;9.124;2023-04-09T11:32:44;27.08;;;18.67;;
49153;SDS011;49455;52.252;9.124;2023-04-09T11:37:45;32.80;;;22.20;;
49153;SDS011;49455;52.252;9.124;2023-04-09T11:42:47;26.92;;;18.45;;
49153;SDS011;49455;52.252;9.124;2023-04-09T11:47:49;25.55;;;18.42;;
49153;SDS011;49455;52.252;9.124;2023-04-09T11:52:50;28.83;;;19.08;;
49153;SDS011;49455;52.252;9.124;2023-04-09T11:57:52;22.95;;;16.73;;
49153;SDS011;49455;52.252;9.124;2023-04-09T12:03:02;24.67;;;17.45;;
49153;SDS011;49455;52.252;9.124;2023-04-09T12:08:07;24.48;;;17.73;;
49153;SDS011;49455;52.252;9.124;2023-04-09T12:13:08;25.05;;;19.00;;
49153;SDS011;49455;52.252;9.124;2023-04-09T12:18:10;26.85;;;17.85;;
49153;SDS011;49455;52.252;9.124;2023-04-09T12:23:11;27.20;;;18.35;;
49153;SDS011;49455;52.252;9.124;2023-04-09T12:28:13;25.80;;;17.73;;
49153;SDS011;49455;52.252;9.124;2023-04-09T12:33:14;26.73;;;18.50;;
49153;SDS011;49455;52.252;9.124;2023-04-09T12:38:14;24.48;;;17.63;;
49153;SDS011;49455;52.252;9.124;2023-04-09T12:43:15;26.33;;;18.33;;
49153;SDS011;49455;52.252;9.124;2023-04-09T12:48:15;27.42;;;18.20;;
49153;SDS011;49455;52.252;9.124;2023-04-09T12:53:16;24.50;;;17.33;;
49153;SDS011;49455;52.252;9.124;2023-04-09T12:58:16;25.75;;;17.85;;
49153;SDS011;49455;52.252;9.124;2023-04-09T13:03:17;25.90;;;17.45;;
49153;SDS011;49455;52.252;9.124;2023-04-09T13:08:17;23.27;;;17.90;;
49153;SDS011;49455;52.252;9.124;2023-04-09T13:13:18;25.48;;;18.05;;
49153;SDS011;49455;52.252;9.124;2023-04-09T13:18:18;26.20;;;19.08;;
49153;SDS011;49455;52.252;9.124;2023-04-09T13:23:18;26.00;;;18.63;;
49153;SDS011;49455;52.252;9.124;2023-04-09T13:28:19;31.88;;;19.67;;
49153;SDS011;49455;52.252;9.124;2023-04-09T13:33:19;28.98;;;19.95;;
49153;SDS011;49455;52.252;9.124;2023-04-09T13:38:20;27.40;;;18.92;;
49153;SDS011;49455;52.252;9.124;2023-04-09T13:43:20;29.70;;;20.27;;
49153;SDS011;49455;52.252;9.124;2023-04-09T13:48:20;27.77;;;19.30;;
49153;SDS011;49455;52.252;9.124;2023-04-09T13:53:21;31.05;;;21.15;;
49153;SDS011;49455;52.252;9.124;2023-04-09T13:58:21;31.10;;;20.65;;
49153;SDS011;49455;52.252;9.124;2023-04-09T14:03:22;31.45;;;21.42;;
49153;SDS011;49455;52.252;9.124;2023-04-09T14:08:22;31.02;;;20.77;;
49153;SDS011;49455;52.252;9.124;2023-04-09T14:13:23;28.13;;;19.50;;
49153;SDS011;49455;52.252;9.124;2023-04-09T14:18:23;28.52;;;20.33;;
49153;SDS011;49455;52.252;9.124;2023-04-09T14:23:27;28.58;;;18.30;;
49153;SDS011;49455;52.252;9.124;2023-04-09T14:28:27;29.40;;;20.67;;
49153;SDS011;49455;52.252;9.124;2023-04-09T14:33:28;26.83;;;19.50;;
49153;SDS011;49455;52.252;9.124;2023-04-09T14:38:29;25.67;;;17.77;;
49153;SDS011;49455;52.252;9.124;2023-04-09T14:43:29;25.48;;;17.92;;
49153;SDS011;49455;52.252;9.124;2023-04-09T14:48:30;22.70;;;16.20;;
49153;SDS011;49455;52.252;9.124;2023-04-09T14:53:30;23.60;;;16.30;;
49153;SDS011;49455;52.252;9.124;2023-04-09T14:58:31;24.38;;;16.60;;
49153;SDS011;49455;52.252;9.124;2023-04-09T15:03:31;21.20;;;16.05;;
49153;SDS011;49455;52.252;9.124;2023-04-09T15:08:31;22.92;;;16.40;;
49153;SDS011;49455;52.252;9.124;2023-04-09T15:13:32;22.13;;;17.27;;
49153;SDS011;49455;52.252;9.124;2023-04-09T15:18:32;23.80;;;17.33;;
49153;SDS011;49455;52.252;9.124;2023-04-09T15:23:33;24.75;;;17.08;;
49153;SDS011;49455;52.252;9.124;2023-04-09T15:28:33;22.38;;;17.17;;
49153;SDS011;49455;52.252;9.124;2023-04-09T15:33:34;22.38;;;16.33;;
49153;SDS011;49455;52.252;9.124;2023-04-09T15:38:34;19.73;;;14.93;;
49153;SDS011;49455;52.252;9.124;2023-04-09T15:43:34;20.23;;;15.32;;
49153;SDS011;49455;52.252;9.124;2023-04-09T15:48:35;21.23;;;16.17;;
49153;SDS011;49455;52.252;9.124;2023-04-09T15:53:36;21.95;;;16.60;;
49153;SDS011;49455;52.252;9.124;2023-04-09T15:58:36;23.88;;;16.55;;
49153;SDS011;49455;52.252;9.124;2023-04-09T16:03:37;26.27;;;18.70;;
49153;SDS011;49455;52.252;9.124;2023-04-09T16:08:38;28.73;;;18.33;;
49153;SDS011;49455;52.252;9.124;2023-04-09T16:13:38;24.17;;;17.17;;
49153;SDS011;49455;52.252;9.124;2023-04-09T16:18:39;21.70;;;16.33;;
49153;SDS011;49455;52.252;9.124;2023-04-09T16:23:39;22.05;;;16.80;;
49153;SDS011;49455;52.252;9.124;2023-04-09T16:28:39;21.92;;;15.63;;
49153;SDS011;49455;52.252;9.124;2023-04-09T16:33:40;21.13;;;15.80;;
49153;SDS011;49455;52.252;9.124;2023-04-09T16:38:40;24.60;;;17.25;;
49153;SDS011;49455;52.252;9.124;2023-04-09T16:43:41;27.88;;;17.85;;
49153;SDS011;49455;52.252;9.124;2023-04-09T16:48:41;25.17;;;16.95;;
49153;SDS011;49455;52.252;9.124;2023-04-09T16:53:42;20.30;;;15.65;;
49153;SDS011;49455;52.252;9.124;2023-04-09T16:58:42;23.42;;;16.60;;
49153;SDS011;49455;52.252;9.124;2023-04-09T17:03:45;21.77;;;15.47;;
49153;SDS011;49455;52.252;9.124;2023-04-09T17:08:47;20.08;;;14.50;;
49153;SDS011;49455;52.252;9.124;2023-04-09T17:13:47;21.02;;;14.95;;
49153;SDS011;49455;52.252;9.124;2023-04-09T17:18:47;26.50;;;15.73;;
49153;SDS011;49455;52.252;9.124;2023-04-09T17:23:48;21.45;;;15.63;;
49153;SDS011;49455;52.252;9.124;2023-04-09T17:28:48;22.08;;;16.15;;
49153;SDS011;49455;52.252;9.124;2023-04-09T17:33:49;21.42;;;15.75;;
49153;SDS011;49455;52.252;9.124;2023-04-09T17:38:50;21.23;;;14.95;;
49153;SDS011;49455;52.252;9.124;2023-04-09T17:43:51;21.98;;;16.00;;
49153;SDS011;49455;52.252;9.124;2023-04-09T17:48:51;22.17;;;15.32;;
49153;SDS011;49455;52.252;9.124;2023-04-09T17:53:52;21.33;;;15.10;;
49153;SDS011;49455;52.252;9.124;2023-04-09T17:58:52;21.17;;;14.88;;
49153;SDS011;49455;52.252;9.124;2023-04-09T18:03:52;19.58;;;14.30;;
49153;SDS011;49455;52.252;9.124;2023-04-09T18:08:53;18.38;;;14.23;;
49153;SDS011;49455;52.252;9.124;2023-04-09T18:13:53;23.38;;;15.60;;
49153;SDS011;49455;52.252;9.124;2023-04-09T18:18:54;22.48;;;15.85;;
49153;SDS011;49455;52.252;9.124;2023-04-09T18:23:54;22.48;;;15.45;;
49153;SDS011;49455;52.252;9.124;2023-04-09T18:28:55;23.55;;;16.58;;
49153;SDS011;49455;52.252;9.124;2023-04-09T18:33:55;22.73;;;16.08;;
49153;SDS011;49455;52.252;9.124;2023-04-09T18:38:55;21.75;;;15.25;;
49153;SDS011;49455;52.252;9.124;2023-04-09T18:43:57;22.17;;;15.90;;
49153;SDS011;49455;52.252;9.124;2023-04-09T18:48:57;23.00;;;17.05;;
49153;SDS011;49455;52.252;9.124;2023-04-09T18:53:58;27.23;;;18.23;;
49153;SDS011;49455;52.252;9.124;2023-04-09T18:58:58;23.50;;;16.55;;
49153;SDS011;49455;52.252;9.124;2023-04-09T19:03:59;24.70;;;16.55;;
49153;SDS011;49455;52.252;9.124;2023-04-09T19:08:59;24.48;;;17.25;;
49153;SDS011;49455;52.252;9.124;2023-04-09T19:13:59;26.77;;;17.52;;
49153;SDS011;49455;52.252;9.124;2023-04-09T19:19:00;28.35;;;18.35;;
49153;SDS011;49455;52.252;9.124;2023-04-09T19:24:00;26.05;;;17.38;;
49153;SDS011;49455;52.252;9.124;2023-04-09T19:29:01;27.67;;;17.75;;
49153;SDS011;49455;52.252;9.124;2023-04-09T19:34:01;28.13;;;18.42;;
49153;SDS011;49455;52.252;9.124;2023-04-09T19:39:02;29.90;;;19.58;;
49153;SDS011;49455;52.252;9.124;2023-04-09T19:44:03;31.73;;;20.33;;
49153;SDS011;49455;52.252;9.124;2023-04-09T19:49:03;37.67;;;22.70;;
49153;SDS011;49455;52.252;9.124;2023-04-09T19:54:03;30.80;;;19.98;;
49153;SDS011;49455;52.252;9.124;2023-04-09T19:59:04;34.13;;;21.77;;
49153;SDS011;49455;52.252;9.124;2023-04-09T20:04:04;36.50;;;22.20;;
49153;SDS011;49455;52.252;9.124;2023-04-09T20:09:05;42.35;;;25.52;;
49153;SDS011;49455;52.252;9.124;2023-04-09T20:14:05;37.60;;;24.60;;
49153;SDS011;49455;52.252;9.124;2023-04-09T20:19:05;36.97;;;23.15;;
49153;SDS011;49455;52.252;9.124;2023-04-09T20:24:06;36.50;;;23.05;;
49153;SDS011;49455;52.252;9.124;2023-04-09T20:29:06;38.17;;;23.83;;
49153;SDS011;49455;52.252;9.124;2023-04-09T20:34:07;35.88;;;22.33;;
49153;SDS011;49455;52.252;9.124;2023-04-09T20:39:07;37.97;;;23.30;;
49153;SDS011;49455;52.252;9.124;2023-04-09T20:44:10;39.22;;;23.17;;
49153;SDS011;49455;52.252;9.124;2023-04-09T20:49:11;43.88;;;25.20;;
49153;SDS011;49455;52.252;9.124;2023-04-09T20:54:11;46.08;;;25.45;;
49153;SDS011;49455;52.252;9.124;2023-04-09T20:59:12;36.25;;;23.90;;
49153;SDS011;49455;52.252;9.124;2023-04-09T21:04:12;40.33;;;23.67;;
49153;SDS011;49455;52.252;9.124;2023-04-09T21:09:13;39.20;;;24.05;;
49153;SDS011;49455;52.252;9.124;2023-04-09T21:14:13;39.30;;;23.58;;
49153;SDS011;49455;52.252;9.124;2023-04-09T21:19:13;44.22;;;25.00;;
49153;SDS011;49455;52.252;9.124;2023-04-09T21:24:14;38.53;;;23.13;;
49153;SDS011;49455;52.252;9.124;2023-04-09T21:29:15;40.35;;;24.55;;
49153;SDS011;49455;52.252;9.124;2023-04-09T21:34:15;42.42;;;25.65;;
49153;SDS011;49455;52.252;9.124;2023-04-09T21:39:15;43.70;;;26.85;;
49153;SDS011;49455;52.252;9.124;2023-04-09T21:44:16;43.28;;;26.35;;
49153;SDS011;49455;52.252;9.124;2023-04-09T21:49:17;43.63;;;26.63;;
49153;SDS011;49455;52.252;9.124;2023-04-09T21:54:17;43.78;;;26.58;;
49153;SDS011;49455;52.252;9.124;2023-04-09T21:59:17;42.60;;;26.13;;
49153;SDS011;49455;52.252;9.124;2023-04-09T22:04:18;41.65;;;27.02;;
49153;SDS011;49455;52.252;9.124;2023-04-09T22:09:18;44.40;;;27.55;;
49153;SDS011;49455;52.252;9.124;2023-04-09T22:14:20;45.03;;;27.38;;
49153;SDS011;49455;52.252;9.124;2023-04-09T22:19:20;47.33;;;28.98;;
49153;SDS011;49455;52.252;9.124;2023-04-09T22:24:21;48.97;;;28.50;;
49153;SDS011;49455;52.252;9.124;2023-04-09T22:29:21;50.97;;;31.10;;
49153;SDS011;49455;52.252;9.124;2023-04-09T22:34:22;48.85;;;30.15;;
49153;SDS011;49455;52.252;9.124;2023-04-09T22:39:22;53.30;;;31.75;;
49153;SDS011;49455;52.252;9.124;2023-04-09T22:44:23;51.60;;;31.80;;
49153;SDS011;49455;52.252;9.124;2023-04-09T22:49:24;49.47;;;30.33;;
49153;SDS011;49455;52.252;9.124;2023-04-09T22:54:24;51.78;;;31.33;;
49153;SDS011;49455;52.252;9.124;2023-04-09T22:59:24;55.63;;;33.15;;
49153;SDS011;49455;52.252;9.124;2023-04-09T23:04:25;53.97;;;32.40;;
49153;SDS011;49455;52.252;9.124;2023-04-09T23:09:25;53.53;;;32.33;;
49153;SDS011;49455;52.252;9.124;2023-04-09T23:14:26;50.83;;;32.00;;
49153;SDS011;49455;52.252;9.124;2023-04-09T23:19:26;53.40;;;33.88;;
49153;SDS011;49455;52.252;9.124;2023-04-09T23:24:26;54.53;;;33.80;;
49153;SDS011;49455;52.252;9.124;2023-04-09T23:29:27;57.40;;;34.83;;
49153;SDS011;49455;52.252;9.124;2023-04-09T23:34:27;57.30;;;33.53;;
49153;SDS011;49455;52.252;9.124;2023-04-09T23:39:28;59.75;;;35.58;;
49153;SDS011;49455;52.252;9.124;2023-04-09T23:44:28;55.50;;;34.10;;
49153;SDS011;49455;52.252;9.124;2023-04-09T23:49:28;55.33;;;34.03;;
49153;SDS011;49455;52.252;9.124;2023-04-09T23:54:29;57.50;;;35.55;;
49153;SDS011;49455;52.252;9.124;2023-04-09T23:59:29;53.55;;;32.38;;
